<?xml version="1.0" encoding="UTF-8" standalone="no" ?>
<gpx xmlns="http://www.topografix.com/GPX/1/1" xmlns:xsi="http://www.w3.org/2001/XMLSchema-instance" xsi:schemaLocation="http://www.topografix.com/GPX/1/1 http://www.topografix.com/GPX/1/1/gpx.xsd" version="1.1" creator="VisuGPX - https://www.visugpx.com">
  <metadata>
    <name>Raid 2010 - Etape 4 (VTT)</name>
    <desc><![CDATA[Et on fini par un p\'tit bain]]></desc>
  </metadata>
  <trk>
    <name><![CDATA[DG-100 Track]]></name>
    <trkseg>
      <trkpt lat="45.68334" lon="5.98148">
        <ele>1499.4438476562</ele>
        <time>2010-08-29T08:30:23Z</time>
      </trkpt>
      <trkpt lat="45.68338" lon="5.98153">
        <ele>1499.7562255859</ele>
        <time>2010-08-29T08:30:54Z</time>
      </trkpt>
      <trkpt lat="45.68341" lon="5.98147">
        <ele>1500.7141113281</ele>
        <time>2010-08-29T08:31:52Z</time>
      </trkpt>
      <trkpt lat="45.6834" lon="5.98141">
        <ele>1500.978515625</ele>
        <time>2010-08-29T08:35:17Z</time>
      </trkpt>
      <trkpt lat="45.68338" lon="5.98135">
        <ele>1501.1329345703</ele>
        <time>2010-08-29T08:36:26Z</time>
      </trkpt>
      <trkpt lat="45.68301" lon="5.9798">
        <ele>1510.4229736328</ele>
        <time>2010-08-29T08:36:56Z</time>
      </trkpt>
      <trkpt lat="45.68359" lon="5.9792">
        <ele>1512.4487304688</ele>
        <time>2010-08-29T08:37:26Z</time>
      </trkpt>
      <trkpt lat="45.68344" lon="5.97839">
        <ele>1519.8410644531</ele>
        <time>2010-08-29T08:37:56Z</time>
      </trkpt>
      <trkpt lat="45.68309" lon="5.97764">
        <ele>1520</ele>
        <time>2010-08-29T08:38:26Z</time>
      </trkpt>
      <trkpt lat="45.68277" lon="5.97689">
        <ele>1520</ele>
        <time>2010-08-29T08:38:56Z</time>
      </trkpt>
      <trkpt lat="45.68247" lon="5.97625">
        <ele>1520</ele>
        <time>2010-08-29T08:39:26Z</time>
      </trkpt>
      <trkpt lat="45.682" lon="5.97563">
        <ele>1520</ele>
        <time>2010-08-29T08:39:56Z</time>
      </trkpt>
      <trkpt lat="45.68156" lon="5.97503">
        <ele>1513.951171875</ele>
        <time>2010-08-29T08:40:26Z</time>
      </trkpt>
      <trkpt lat="45.68151" lon="5.97453">
        <ele>1503.7233886719</ele>
        <time>2010-08-29T08:40:56Z</time>
      </trkpt>
      <trkpt lat="45.6815" lon="5.97459">
        <ele>1505.4091796875</ele>
        <time>2010-08-29T08:41:50Z</time>
      </trkpt>
      <trkpt lat="45.68134" lon="5.97505">
        <ele>1512.6466064453</ele>
        <time>2010-08-29T08:42:20Z</time>
      </trkpt>
      <trkpt lat="45.68131" lon="5.97509">
        <ele>1513.498046875</ele>
        <time>2010-08-29T08:42:59Z</time>
      </trkpt>
      <trkpt lat="45.68087" lon="5.97573">
        <ele>1518.6662597656</ele>
        <time>2010-08-29T08:43:29Z</time>
      </trkpt>
      <trkpt lat="45.67992" lon="5.97804">
        <ele>1495.1247558594</ele>
        <time>2010-08-29T08:43:59Z</time>
      </trkpt>
      <trkpt lat="45.67924" lon="5.97965">
        <ele>1460</ele>
        <time>2010-08-29T08:44:29Z</time>
      </trkpt>
      <trkpt lat="45.6792" lon="5.97966">
        <ele>1460</ele>
        <time>2010-08-29T08:45:31Z</time>
      </trkpt>
      <trkpt lat="45.6789" lon="5.98007">
        <ele>1459.0322265625</ele>
        <time>2010-08-29T08:46:01Z</time>
      </trkpt>
      <trkpt lat="45.67891" lon="5.98035">
        <ele>1459.0871582031</ele>
        <time>2010-08-29T08:46:31Z</time>
      </trkpt>
      <trkpt lat="45.67949" lon="5.98139">
        <ele>1460</ele>
        <time>2010-08-29T08:47:01Z</time>
      </trkpt>
      <trkpt lat="45.68055" lon="5.98248">
        <ele>1458.0838623047</ele>
        <time>2010-08-29T08:47:31Z</time>
      </trkpt>
      <trkpt lat="45.68131" lon="5.98382">
        <ele>1449.4073486328</ele>
        <time>2010-08-29T08:48:01Z</time>
      </trkpt>
      <trkpt lat="45.68208" lon="5.98522">
        <ele>1439.2202148438</ele>
        <time>2010-08-29T08:48:31Z</time>
      </trkpt>
      <trkpt lat="45.68248" lon="5.98674">
        <ele>1429.3225097656</ele>
        <time>2010-08-29T08:49:01Z</time>
      </trkpt>
      <trkpt lat="45.68245" lon="5.98712">
        <ele>1428.27734375</ele>
        <time>2010-08-29T08:49:31Z</time>
      </trkpt>
      <trkpt lat="45.68243" lon="5.98746">
        <ele>1427.8032226562</ele>
        <time>2010-08-29T08:50:01Z</time>
      </trkpt>
      <trkpt lat="45.68254" lon="5.98839">
        <ele>1421.1458740234</ele>
        <time>2010-08-29T08:50:31Z</time>
      </trkpt>
      <trkpt lat="45.68158" lon="5.99038">
        <ele>1413.8751220703</ele>
        <time>2010-08-29T08:51:01Z</time>
      </trkpt>
      <trkpt lat="45.67995" lon="5.99148">
        <ele>1412.0173339844</ele>
        <time>2010-08-29T08:51:31Z</time>
      </trkpt>
      <trkpt lat="45.68076" lon="5.99269">
        <ele>1398.3248291016</ele>
        <time>2010-08-29T08:52:01Z</time>
      </trkpt>
      <trkpt lat="45.68047" lon="5.9953">
        <ele>1384.1647949219</ele>
        <time>2010-08-29T08:52:31Z</time>
      </trkpt>
      <trkpt lat="45.67989" lon="5.99749">
        <ele>1379.4089355469</ele>
        <time>2010-08-29T08:53:01Z</time>
      </trkpt>
      <trkpt lat="45.67954" lon="5.99792">
        <ele>1384.193359375</ele>
        <time>2010-08-29T08:53:31Z</time>
      </trkpt>
      <trkpt lat="45.67965" lon="5.99772">
        <ele>1381.7890625</ele>
        <time>2010-08-29T08:54:01Z</time>
      </trkpt>
      <trkpt lat="45.68027" lon="5.99715">
        <ele>1379.2728271484</ele>
        <time>2010-08-29T08:54:31Z</time>
      </trkpt>
      <trkpt lat="45.68049" lon="5.99703">
        <ele>1378.9080810547</ele>
        <time>2010-08-29T08:55:01Z</time>
      </trkpt>
      <trkpt lat="45.68054" lon="5.99705">
        <ele>1378.6712646484</ele>
        <time>2010-08-29T08:55:48Z</time>
      </trkpt>
      <trkpt lat="45.68037" lon="5.99717">
        <ele>1378.8806152344</ele>
        <time>2010-08-29T08:56:18Z</time>
      </trkpt>
      <trkpt lat="45.67981" lon="5.99769">
        <ele>1379.685546875</ele>
        <time>2010-08-29T08:56:48Z</time>
      </trkpt>
      <trkpt lat="45.67986" lon="5.99789">
        <ele>1379.2799072266</ele>
        <time>2010-08-29T08:57:18Z</time>
      </trkpt>
      <trkpt lat="45.67958" lon="5.99921">
        <ele>1380</ele>
        <time>2010-08-29T08:57:48Z</time>
      </trkpt>
      <trkpt lat="45.67993" lon="5.99948">
        <ele>1376.7237548828</ele>
        <time>2010-08-29T08:58:18Z</time>
      </trkpt>
      <trkpt lat="45.68011" lon="5.99959">
        <ele>1373.9797363281</ele>
        <time>2010-08-29T08:58:48Z</time>
      </trkpt>
      <trkpt lat="45.68116" lon="6.00042">
        <ele>1363.0316162109</ele>
        <time>2010-08-29T08:59:18Z</time>
      </trkpt>
      <trkpt lat="45.68167" lon="6.00132">
        <ele>1337.7067871094</ele>
        <time>2010-08-29T08:59:48Z</time>
      </trkpt>
      <trkpt lat="45.68111" lon="6.00251">
        <ele>1332.8579101562</ele>
        <time>2010-08-29T09:00:18Z</time>
      </trkpt>
      <trkpt lat="45.68114" lon="6.00246">
        <ele>1333.1878662109</ele>
        <time>2010-08-29T09:01:33Z</time>
      </trkpt>
      <trkpt lat="45.6811" lon="6.00203">
        <ele>1338.2413330078</ele>
        <time>2010-08-29T09:02:03Z</time>
      </trkpt>
      <trkpt lat="45.68107" lon="6.00208">
        <ele>1337.9202880859</ele>
        <time>2010-08-29T09:03:02Z</time>
      </trkpt>
      <trkpt lat="45.68103" lon="6.00212">
        <ele>1337.8013916016</ele>
        <time>2010-08-29T09:03:32Z</time>
      </trkpt>
      <trkpt lat="45.68103" lon="6.00206">
        <ele>1338.6312255859</ele>
        <time>2010-08-29T09:04:05Z</time>
      </trkpt>
      <trkpt lat="45.681" lon="6.0021">
        <ele>1338.3897705078</ele>
        <time>2010-08-29T09:04:51Z</time>
      </trkpt>
      <trkpt lat="45.68104" lon="6.00207">
        <ele>1338.5211181641</ele>
        <time>2010-08-29T09:05:34Z</time>
      </trkpt>
      <trkpt lat="45.68107" lon="6.002">
        <ele>1339.01171875</ele>
        <time>2010-08-29T09:06:04Z</time>
      </trkpt>
      <trkpt lat="45.68106" lon="6.00207">
        <ele>1338.2202148438</ele>
        <time>2010-08-29T09:09:29Z</time>
      </trkpt>
      <trkpt lat="45.68108" lon="6.00213">
        <ele>1337.3151855469</ele>
        <time>2010-08-29T09:11:15Z</time>
      </trkpt>
      <trkpt lat="45.68107" lon="6.00207">
        <ele>1338.1374511719</ele>
        <time>2010-08-29T09:11:58Z</time>
      </trkpt>
      <trkpt lat="45.68109" lon="6.00201">
        <ele>1338.5072021484</ele>
        <time>2010-08-29T09:13:04Z</time>
      </trkpt>
      <trkpt lat="45.68108" lon="6.00209">
        <ele>1337.6978759766</ele>
        <time>2010-08-29T09:15:19Z</time>
      </trkpt>
      <trkpt lat="45.68106" lon="6.00202">
        <ele>1338.7239990234</ele>
        <time>2010-08-29T09:15:49Z</time>
      </trkpt>
      <trkpt lat="45.6811" lon="6.00198">
        <ele>1338.7463378906</ele>
        <time>2010-08-29T09:16:25Z</time>
      </trkpt>
      <trkpt lat="45.68113" lon="6.00192">
        <ele>1339.1103515625</ele>
        <time>2010-08-29T09:16:55Z</time>
      </trkpt>
      <trkpt lat="45.68108" lon="6.00191">
        <ele>1339.9428710938</ele>
        <time>2010-08-29T09:17:38Z</time>
      </trkpt>
      <trkpt lat="45.68052" lon="6.00214">
        <ele>1342.2916259766</ele>
        <time>2010-08-29T09:18:08Z</time>
      </trkpt>
      <trkpt lat="45.6803" lon="6.00302">
        <ele>1338.7846679688</ele>
        <time>2010-08-29T09:18:38Z</time>
      </trkpt>
      <trkpt lat="45.68021" lon="6.00467">
        <ele>1335.7757568359</ele>
        <time>2010-08-29T09:19:08Z</time>
      </trkpt>
      <trkpt lat="45.68046" lon="6.00624">
        <ele>1334.3269042969</ele>
        <time>2010-08-29T09:19:38Z</time>
      </trkpt>
      <trkpt lat="45.68034" lon="6.00746">
        <ele>1336.9685058594</ele>
        <time>2010-08-29T09:20:08Z</time>
      </trkpt>
      <trkpt lat="45.67987" lon="6.00848">
        <ele>1340.3927001953</ele>
        <time>2010-08-29T09:20:38Z</time>
      </trkpt>
      <trkpt lat="45.67943" lon="6.00949">
        <ele>1349.8436279297</ele>
        <time>2010-08-29T09:21:08Z</time>
      </trkpt>
      <trkpt lat="45.67989" lon="6.01069">
        <ele>1339</ele>
        <time>2010-08-29T09:21:38Z</time>
      </trkpt>
      <trkpt lat="45.68068" lon="6.01157">
        <ele>1340.3742675781</ele>
        <time>2010-08-29T09:22:08Z</time>
      </trkpt>
      <trkpt lat="45.68065" lon="6.01318">
        <ele>1343.5360107422</ele>
        <time>2010-08-29T09:22:38Z</time>
      </trkpt>
      <trkpt lat="45.68083" lon="6.01485">
        <ele>1342.5367431641</ele>
        <time>2010-08-29T09:23:08Z</time>
      </trkpt>
      <trkpt lat="45.68056" lon="6.01659">
        <ele>1349.5966796875</ele>
        <time>2010-08-29T09:23:38Z</time>
      </trkpt>
      <trkpt lat="45.68015" lon="6.01841">
        <ele>1341.8514404297</ele>
        <time>2010-08-29T09:24:08Z</time>
      </trkpt>
      <trkpt lat="45.68029" lon="6.02006">
        <ele>1346.388671875</ele>
        <time>2010-08-29T09:24:38Z</time>
      </trkpt>
      <trkpt lat="45.68058" lon="6.02115">
        <ele>1352.5616455078</ele>
        <time>2010-08-29T09:25:08Z</time>
      </trkpt>
      <trkpt lat="45.68146" lon="6.02188">
        <ele>1363.0808105469</ele>
        <time>2010-08-29T09:25:38Z</time>
      </trkpt>
      <trkpt lat="45.68216" lon="6.02294">
        <ele>1373.1396484375</ele>
        <time>2010-08-29T09:26:08Z</time>
      </trkpt>
      <trkpt lat="45.68301" lon="6.02404">
        <ele>1368.1433105469</ele>
        <time>2010-08-29T09:26:38Z</time>
      </trkpt>
      <trkpt lat="45.68379" lon="6.02468">
        <ele>1358.9177246094</ele>
        <time>2010-08-29T09:27:08Z</time>
      </trkpt>
      <trkpt lat="45.68481" lon="6.0253">
        <ele>1346.9176025391</ele>
        <time>2010-08-29T09:27:38Z</time>
      </trkpt>
      <trkpt lat="45.68486" lon="6.02797">
        <ele>1357.2783203125</ele>
        <time>2010-08-29T09:28:08Z</time>
      </trkpt>
      <trkpt lat="45.68505" lon="6.03047">
        <ele>1344.5671386719</ele>
        <time>2010-08-29T09:28:38Z</time>
      </trkpt>
      <trkpt lat="45.6851" lon="6.03257">
        <ele>1332.9324951172</ele>
        <time>2010-08-29T09:29:08Z</time>
      </trkpt>
      <trkpt lat="45.68616" lon="6.03251">
        <ele>1333.1873779297</ele>
        <time>2010-08-29T09:29:38Z</time>
      </trkpt>
      <trkpt lat="45.68744" lon="6.03356">
        <ele>1330.5413818359</ele>
        <time>2010-08-29T09:30:08Z</time>
      </trkpt>
      <trkpt lat="45.68833" lon="6.03483">
        <ele>1320.0399169922</ele>
        <time>2010-08-29T09:30:38Z</time>
      </trkpt>
      <trkpt lat="45.68833" lon="6.03615">
        <ele>1320.859375</ele>
        <time>2010-08-29T09:31:08Z</time>
      </trkpt>
      <trkpt lat="45.68919" lon="6.03678">
        <ele>1320</ele>
        <time>2010-08-29T09:31:38Z</time>
      </trkpt>
      <trkpt lat="45.6896" lon="6.03654">
        <ele>1320</ele>
        <time>2010-08-29T09:32:08Z</time>
      </trkpt>
      <trkpt lat="45.68964" lon="6.0365">
        <ele>1320</ele>
        <time>2010-08-29T09:32:38Z</time>
      </trkpt>
      <trkpt lat="45.6896" lon="6.03651">
        <ele>1320</ele>
        <time>2010-08-29T09:33:35Z</time>
      </trkpt>
      <trkpt lat="45.69061" lon="6.03846">
        <ele>1315.8206787109</ele>
        <time>2010-08-29T09:34:05Z</time>
      </trkpt>
      <trkpt lat="45.69281" lon="6.03988">
        <ele>1319.0494384766</ele>
        <time>2010-08-29T09:34:35Z</time>
      </trkpt>
      <trkpt lat="45.69447" lon="6.04088">
        <ele>1303.7711181641</ele>
        <time>2010-08-29T09:35:05Z</time>
      </trkpt>
      <trkpt lat="45.69562" lon="6.0415">
        <ele>1298.5131835938</ele>
        <time>2010-08-29T09:35:35Z</time>
      </trkpt>
      <trkpt lat="45.69723" lon="6.04212">
        <ele>1298.3612060547</ele>
        <time>2010-08-29T09:36:05Z</time>
      </trkpt>
      <trkpt lat="45.69718" lon="6.04211">
        <ele>1298.2325439453</ele>
        <time>2010-08-29T09:36:35Z</time>
      </trkpt>
      <trkpt lat="45.69715" lon="6.04206">
        <ele>1298.3337402344</ele>
        <time>2010-08-29T09:38:29Z</time>
      </trkpt>
      <trkpt lat="45.69719" lon="6.04209">
        <ele>1298.3646240234</ele>
        <time>2010-08-29T09:39:05Z</time>
      </trkpt>
      <trkpt lat="45.69715" lon="6.04205">
        <ele>1298.3681640625</ele>
        <time>2010-08-29T09:39:35Z</time>
      </trkpt>
      <trkpt lat="45.69718" lon="6.0421">
        <ele>1298.3115234375</ele>
        <time>2010-08-29T09:40:06Z</time>
      </trkpt>
      <trkpt lat="45.6972" lon="6.04224">
        <ele>1297.8565673828</ele>
        <time>2010-08-29T09:40:36Z</time>
      </trkpt>
      <trkpt lat="45.69715" lon="6.04226">
        <ele>1297.6334228516</ele>
        <time>2010-08-29T09:41:06Z</time>
      </trkpt>
      <trkpt lat="45.69716" lon="6.04208">
        <ele>1298.2719726562</ele>
        <time>2010-08-29T09:41:36Z</time>
      </trkpt>
      <trkpt lat="45.69712" lon="6.04208">
        <ele>1298.1329345703</ele>
        <time>2010-08-29T09:42:25Z</time>
      </trkpt>
      <trkpt lat="45.6971" lon="6.04193">
        <ele>1298.6239013672</ele>
        <time>2010-08-29T09:42:55Z</time>
      </trkpt>
      <trkpt lat="45.69719" lon="6.04187">
        <ele>1299.1457519531</ele>
        <time>2010-08-29T09:43:25Z</time>
      </trkpt>
      <trkpt lat="45.69726" lon="6.04199">
        <ele>1298.8538818359</ele>
        <time>2010-08-29T09:43:55Z</time>
      </trkpt>
      <trkpt lat="45.69739" lon="6.04154">
        <ele>1300</ele>
        <time>2010-08-29T09:44:25Z</time>
      </trkpt>
      <trkpt lat="45.69751" lon="6.04107">
        <ele>1300.1815185547</ele>
        <time>2010-08-29T09:44:55Z</time>
      </trkpt>
      <trkpt lat="45.6979" lon="6.0415">
        <ele>1301.0493164062</ele>
        <time>2010-08-29T09:45:25Z</time>
      </trkpt>
      <trkpt lat="45.6984" lon="6.0421">
        <ele>1301.8343505859</ele>
        <time>2010-08-29T09:45:55Z</time>
      </trkpt>
      <trkpt lat="45.69896" lon="6.04213">
        <ele>1308.3149414062</ele>
        <time>2010-08-29T09:46:25Z</time>
      </trkpt>
      <trkpt lat="45.69941" lon="6.04282">
        <ele>1302.5600585938</ele>
        <time>2010-08-29T09:46:55Z</time>
      </trkpt>
      <trkpt lat="45.69962" lon="6.04226">
        <ele>1308.9787597656</ele>
        <time>2010-08-29T09:47:25Z</time>
      </trkpt>
      <trkpt lat="45.69975" lon="6.04173">
        <ele>1314.4151611328</ele>
        <time>2010-08-29T09:47:55Z</time>
      </trkpt>
      <trkpt lat="45.6999" lon="6.04118">
        <ele>1318.3831787109</ele>
        <time>2010-08-29T09:48:25Z</time>
      </trkpt>
      <trkpt lat="45.69997" lon="6.04064">
        <ele>1323.5472412109</ele>
        <time>2010-08-29T09:48:55Z</time>
      </trkpt>
      <trkpt lat="45.70015" lon="6.0401">
        <ele>1329.5942382812</ele>
        <time>2010-08-29T09:49:25Z</time>
      </trkpt>
      <trkpt lat="45.70037" lon="6.03954">
        <ele>1333.6962890625</ele>
        <time>2010-08-29T09:49:55Z</time>
      </trkpt>
      <trkpt lat="45.7005" lon="6.03884">
        <ele>1338.3748779297</ele>
        <time>2010-08-29T09:50:25Z</time>
      </trkpt>
      <trkpt lat="45.70066" lon="6.03817">
        <ele>1340</ele>
        <time>2010-08-29T09:50:55Z</time>
      </trkpt>
      <trkpt lat="45.70089" lon="6.03756">
        <ele>1340</ele>
        <time>2010-08-29T09:51:25Z</time>
      </trkpt>
      <trkpt lat="45.70126" lon="6.037">
        <ele>1340.6545410156</ele>
        <time>2010-08-29T09:51:55Z</time>
      </trkpt>
      <trkpt lat="45.7019" lon="6.03653">
        <ele>1344.4859619141</ele>
        <time>2010-08-29T09:52:25Z</time>
      </trkpt>
      <trkpt lat="45.70254" lon="6.03588">
        <ele>1344.2364501953</ele>
        <time>2010-08-29T09:52:55Z</time>
      </trkpt>
      <trkpt lat="45.70274" lon="6.03563">
        <ele>1343.0697021484</ele>
        <time>2010-08-29T09:53:25Z</time>
      </trkpt>
      <trkpt lat="45.70278" lon="6.03559">
        <ele>1342.8807373047</ele>
        <time>2010-08-29T09:54:18Z</time>
      </trkpt>
      <trkpt lat="45.70326" lon="6.03538">
        <ele>1351.1928710938</ele>
        <time>2010-08-29T09:54:48Z</time>
      </trkpt>
      <trkpt lat="45.70365" lon="6.0357">
        <ele>1358.2593994141</ele>
        <time>2010-08-29T09:55:18Z</time>
      </trkpt>
      <trkpt lat="45.70396" lon="6.03564">
        <ele>1359.5428466797</ele>
        <time>2010-08-29T09:55:48Z</time>
      </trkpt>
      <trkpt lat="45.70412" lon="6.03563">
        <ele>1360.8106689453</ele>
        <time>2010-08-29T09:56:18Z</time>
      </trkpt>
      <trkpt lat="45.70416" lon="6.03564">
        <ele>1361.2574462891</ele>
        <time>2010-08-29T09:56:48Z</time>
      </trkpt>
      <trkpt lat="45.7042" lon="6.0356">
        <ele>1361.5347900391</ele>
        <time>2010-08-29T09:59:04Z</time>
      </trkpt>
      <trkpt lat="45.70431" lon="6.03562">
        <ele>1362.5528564453</ele>
        <time>2010-08-29T09:59:34Z</time>
      </trkpt>
      <trkpt lat="45.70436" lon="6.03562">
        <ele>1362.970703125</ele>
        <time>2010-08-29T10:00:10Z</time>
      </trkpt>
      <trkpt lat="45.70452" lon="6.03543">
        <ele>1365.0218505859</ele>
        <time>2010-08-29T10:00:40Z</time>
      </trkpt>
      <trkpt lat="45.70471" lon="6.03519">
        <ele>1367.5369873047</ele>
        <time>2010-08-29T10:01:10Z</time>
      </trkpt>
      <trkpt lat="45.70487" lon="6.03499">
        <ele>1371.1574707031</ele>
        <time>2010-08-29T10:01:40Z</time>
      </trkpt>
      <trkpt lat="45.70499" lon="6.03481">
        <ele>1373.5882568359</ele>
        <time>2010-08-29T10:02:10Z</time>
      </trkpt>
      <trkpt lat="45.70511" lon="6.03468">
        <ele>1376.7227783203</ele>
        <time>2010-08-29T10:02:40Z</time>
      </trkpt>
      <trkpt lat="45.70521" lon="6.03452">
        <ele>1379.5648193359</ele>
        <time>2010-08-29T10:03:10Z</time>
      </trkpt>
      <trkpt lat="45.70535" lon="6.03427">
        <ele>1383.2585449219</ele>
        <time>2010-08-29T10:03:40Z</time>
      </trkpt>
      <trkpt lat="45.70553" lon="6.03402">
        <ele>1387.5983886719</ele>
        <time>2010-08-29T10:04:10Z</time>
      </trkpt>
      <trkpt lat="45.7057" lon="6.03382">
        <ele>1390.7202148438</ele>
        <time>2010-08-29T10:04:40Z</time>
      </trkpt>
      <trkpt lat="45.70583" lon="6.03369">
        <ele>1392.2856445312</ele>
        <time>2010-08-29T10:05:10Z</time>
      </trkpt>
      <trkpt lat="45.70602" lon="6.03351">
        <ele>1395.4934082031</ele>
        <time>2010-08-29T10:05:40Z</time>
      </trkpt>
      <trkpt lat="45.70605" lon="6.03347">
        <ele>1395.9771728516</ele>
        <time>2010-08-29T10:06:21Z</time>
      </trkpt>
      <trkpt lat="45.70606" lon="6.0334">
        <ele>1396.0668945312</ele>
        <time>2010-08-29T10:07:21Z</time>
      </trkpt>
      <trkpt lat="45.70612" lon="6.03335">
        <ele>1397.1243896484</ele>
        <time>2010-08-29T10:07:51Z</time>
      </trkpt>
      <trkpt lat="45.70639" lon="6.03309">
        <ele>1400.9449462891</ele>
        <time>2010-08-29T10:08:21Z</time>
      </trkpt>
      <trkpt lat="45.70669" lon="6.03272">
        <ele>1400.5045166016</ele>
        <time>2010-08-29T10:08:51Z</time>
      </trkpt>
      <trkpt lat="45.70707" lon="6.03224">
        <ele>1399.3878173828</ele>
        <time>2010-08-29T10:09:21Z</time>
      </trkpt>
      <trkpt lat="45.70746" lon="6.0317">
        <ele>1405.0772705078</ele>
        <time>2010-08-29T10:09:51Z</time>
      </trkpt>
      <trkpt lat="45.70757" lon="6.03151">
        <ele>1406.8912353516</ele>
        <time>2010-08-29T10:10:21Z</time>
      </trkpt>
      <trkpt lat="45.70772" lon="6.03116">
        <ele>1406.8857421875</ele>
        <time>2010-08-29T10:10:51Z</time>
      </trkpt>
      <trkpt lat="45.70814" lon="6.03106">
        <ele>1414.0450439453</ele>
        <time>2010-08-29T10:11:21Z</time>
      </trkpt>
      <trkpt lat="45.70867" lon="6.03119">
        <ele>1420</ele>
        <time>2010-08-29T10:11:51Z</time>
      </trkpt>
      <trkpt lat="45.70909" lon="6.03126">
        <ele>1420</ele>
        <time>2010-08-29T10:12:21Z</time>
      </trkpt>
      <trkpt lat="45.70942" lon="6.0311">
        <ele>1420</ele>
        <time>2010-08-29T10:12:51Z</time>
      </trkpt>
      <trkpt lat="45.70948" lon="6.03112">
        <ele>1420</ele>
        <time>2010-08-29T10:13:21Z</time>
      </trkpt>
      <trkpt lat="45.70953" lon="6.0311">
        <ele>1420</ele>
        <time>2010-08-29T10:15:56Z</time>
      </trkpt>
      <trkpt lat="45.71052" lon="6.03146">
        <ele>1420</ele>
        <time>2010-08-29T10:16:26Z</time>
      </trkpt>
      <trkpt lat="45.71158" lon="6.03166">
        <ele>1397.1285400391</ele>
        <time>2010-08-29T10:16:56Z</time>
      </trkpt>
      <trkpt lat="45.7117" lon="6.0316">
        <ele>1394.5880126953</ele>
        <time>2010-08-29T10:17:26Z</time>
      </trkpt>
      <trkpt lat="45.712" lon="6.03133">
        <ele>1385.7861328125</ele>
        <time>2010-08-29T10:17:56Z</time>
      </trkpt>
      <trkpt lat="45.71253" lon="6.03144">
        <ele>1379.89453125</ele>
        <time>2010-08-29T10:18:26Z</time>
      </trkpt>
      <trkpt lat="45.71273" lon="6.03154">
        <ele>1377.3052978516</ele>
        <time>2010-08-29T10:18:56Z</time>
      </trkpt>
      <trkpt lat="45.71286" lon="6.03162">
        <ele>1376.2993164062</ele>
        <time>2010-08-29T10:19:26Z</time>
      </trkpt>
      <trkpt lat="45.71294" lon="6.03175">
        <ele>1377.9626464844</ele>
        <time>2010-08-29T10:19:56Z</time>
      </trkpt>
      <trkpt lat="45.71321" lon="6.03206">
        <ele>1384.2033691406</ele>
        <time>2010-08-29T10:20:26Z</time>
      </trkpt>
      <trkpt lat="45.71344" lon="6.03225">
        <ele>1384.6302490234</ele>
        <time>2010-08-29T10:20:56Z</time>
      </trkpt>
      <trkpt lat="45.71378" lon="6.03234">
        <ele>1375.7672119141</ele>
        <time>2010-08-29T10:21:26Z</time>
      </trkpt>
      <trkpt lat="45.71427" lon="6.03211">
        <ele>1344.630859375</ele>
        <time>2010-08-29T10:21:56Z</time>
      </trkpt>
      <trkpt lat="45.71482" lon="6.03262">
        <ele>1331.4975585938</ele>
        <time>2010-08-29T10:22:26Z</time>
      </trkpt>
      <trkpt lat="45.7154" lon="6.03336">
        <ele>1319.0268554688</ele>
        <time>2010-08-29T10:22:56Z</time>
      </trkpt>
      <trkpt lat="45.71585" lon="6.0343">
        <ele>1311.5133056641</ele>
        <time>2010-08-29T10:23:26Z</time>
      </trkpt>
      <trkpt lat="45.71622" lon="6.03514">
        <ele>1306.0434570312</ele>
        <time>2010-08-29T10:23:56Z</time>
      </trkpt>
      <trkpt lat="45.71614" lon="6.03615">
        <ele>1300.3204345703</ele>
        <time>2010-08-29T10:24:26Z</time>
      </trkpt>
      <trkpt lat="45.71639" lon="6.03666">
        <ele>1299.0032958984</ele>
        <time>2010-08-29T10:24:56Z</time>
      </trkpt>
      <trkpt lat="45.71684" lon="6.03675">
        <ele>1297.1918945312</ele>
        <time>2010-08-29T10:25:26Z</time>
      </trkpt>
      <trkpt lat="45.71704" lon="6.03722">
        <ele>1297.0646972656</ele>
        <time>2010-08-29T10:25:56Z</time>
      </trkpt>
      <trkpt lat="45.71716" lon="6.0372">
        <ele>1298.4584960938</ele>
        <time>2010-08-29T10:26:26Z</time>
      </trkpt>
      <trkpt lat="45.71744" lon="6.03687">
        <ele>1305.7546386719</ele>
        <time>2010-08-29T10:26:56Z</time>
      </trkpt>
      <trkpt lat="45.71772" lon="6.03659">
        <ele>1315.8715820312</ele>
        <time>2010-08-29T10:27:26Z</time>
      </trkpt>
      <trkpt lat="45.7176" lon="6.03608">
        <ele>1317.7536621094</ele>
        <time>2010-08-29T10:27:56Z</time>
      </trkpt>
      <trkpt lat="45.71758" lon="6.03572">
        <ele>1321.2103271484</ele>
        <time>2010-08-29T10:28:26Z</time>
      </trkpt>
      <trkpt lat="45.71731" lon="6.03545">
        <ele>1318.1137695312</ele>
        <time>2010-08-29T10:28:56Z</time>
      </trkpt>
      <trkpt lat="45.71732" lon="6.03519">
        <ele>1320.6871337891</ele>
        <time>2010-08-29T10:29:26Z</time>
      </trkpt>
      <trkpt lat="45.71771" lon="6.03497">
        <ele>1332.3092041016</ele>
        <time>2010-08-29T10:29:56Z</time>
      </trkpt>
      <trkpt lat="45.71797" lon="6.03526">
        <ele>1332.0913085938</ele>
        <time>2010-08-29T10:30:26Z</time>
      </trkpt>
      <trkpt lat="45.71824" lon="6.03579">
        <ele>1331.0863037109</ele>
        <time>2010-08-29T10:30:56Z</time>
      </trkpt>
      <trkpt lat="45.71851" lon="6.0362">
        <ele>1334.9947509766</ele>
        <time>2010-08-29T10:31:26Z</time>
      </trkpt>
      <trkpt lat="45.71877" lon="6.03656">
        <ele>1338.4876708984</ele>
        <time>2010-08-29T10:31:56Z</time>
      </trkpt>
      <trkpt lat="45.71912" lon="6.03673">
        <ele>1355.5755615234</ele>
        <time>2010-08-29T10:32:26Z</time>
      </trkpt>
      <trkpt lat="45.71952" lon="6.03678">
        <ele>1359.6896972656</ele>
        <time>2010-08-29T10:32:56Z</time>
      </trkpt>
      <trkpt lat="45.7198" lon="6.03686">
        <ele>1360</ele>
        <time>2010-08-29T10:33:26Z</time>
      </trkpt>
      <trkpt lat="45.71981" lon="6.03694">
        <ele>1360</ele>
        <time>2010-08-29T10:35:46Z</time>
      </trkpt>
      <trkpt lat="45.72024" lon="6.03778">
        <ele>1358</ele>
        <time>2010-08-29T10:36:16Z</time>
      </trkpt>
      <trkpt lat="45.72091" lon="6.03854">
        <ele>1347.8972167969</ele>
        <time>2010-08-29T10:36:46Z</time>
      </trkpt>
      <trkpt lat="45.72123" lon="6.03864">
        <ele>1345.0104980469</ele>
        <time>2010-08-29T10:37:16Z</time>
      </trkpt>
      <trkpt lat="45.72128" lon="6.03864">
        <ele>1344.6929931641</ele>
        <time>2010-08-29T10:37:46Z</time>
      </trkpt>
      <trkpt lat="45.72141" lon="6.03862">
        <ele>1343.83984375</ele>
        <time>2010-08-29T10:38:16Z</time>
      </trkpt>
      <trkpt lat="45.72136" lon="6.03863">
        <ele>1344.1401367188</ele>
        <time>2010-08-29T10:38:54Z</time>
      </trkpt>
      <trkpt lat="45.72101" lon="6.0399">
        <ele>1339.7556152344</ele>
        <time>2010-08-29T10:39:24Z</time>
      </trkpt>
      <trkpt lat="45.72072" lon="6.04033">
        <ele>1336.8591308594</ele>
        <time>2010-08-29T10:39:54Z</time>
      </trkpt>
      <trkpt lat="45.72059" lon="6.04074">
        <ele>1334.6088867188</ele>
        <time>2010-08-29T10:40:24Z</time>
      </trkpt>
      <trkpt lat="45.7206" lon="6.04084">
        <ele>1333.4421386719</ele>
        <time>2010-08-29T10:40:54Z</time>
      </trkpt>
      <trkpt lat="45.72044" lon="6.04084">
        <ele>1334.8076171875</ele>
        <time>2010-08-29T10:41:24Z</time>
      </trkpt>
      <trkpt lat="45.72049" lon="6.0409">
        <ele>1334.03515625</ele>
        <time>2010-08-29T10:41:54Z</time>
      </trkpt>
      <trkpt lat="45.72061" lon="6.04085">
        <ele>1333.2497558594</ele>
        <time>2010-08-29T10:42:24Z</time>
      </trkpt>
      <trkpt lat="45.72057" lon="6.04088">
        <ele>1333.4832763672</ele>
        <time>2010-08-29T10:43:17Z</time>
      </trkpt>
      <trkpt lat="45.7205" lon="6.04084">
        <ele>1334.3475341797</ele>
        <time>2010-08-29T10:43:47Z</time>
      </trkpt>
      <trkpt lat="45.72045" lon="6.04107">
        <ele>1333.0498046875</ele>
        <time>2010-08-29T10:44:17Z</time>
      </trkpt>
      <trkpt lat="45.72042" lon="6.04125">
        <ele>1331.4949951172</ele>
        <time>2010-08-29T10:44:47Z</time>
      </trkpt>
      <trkpt lat="45.72052" lon="6.04124">
        <ele>1330.8975830078</ele>
        <time>2010-08-29T10:45:17Z</time>
      </trkpt>
      <trkpt lat="45.72047" lon="6.04129">
        <ele>1330.6916503906</ele>
        <time>2010-08-29T10:45:52Z</time>
      </trkpt>
      <trkpt lat="45.72041" lon="6.04148">
        <ele>1329.6005859375</ele>
        <time>2010-08-29T10:46:22Z</time>
      </trkpt>
      <trkpt lat="45.72033" lon="6.0416">
        <ele>1329.6832275391</ele>
        <time>2010-08-29T10:46:52Z</time>
      </trkpt>
      <trkpt lat="45.72029" lon="6.04159">
        <ele>1330.1939697266</ele>
        <time>2010-08-29T10:47:44Z</time>
      </trkpt>
      <trkpt lat="45.7202" lon="6.04155">
        <ele>1331.8553466797</ele>
        <time>2010-08-29T10:48:14Z</time>
      </trkpt>
      <trkpt lat="45.72011" lon="6.04159">
        <ele>1333.4794921875</ele>
        <time>2010-08-29T10:48:44Z</time>
      </trkpt>
      <trkpt lat="45.72022" lon="6.04164">
        <ele>1331.1175537109</ele>
        <time>2010-08-29T10:49:14Z</time>
      </trkpt>
      <trkpt lat="45.72038" lon="6.04176">
        <ele>1327.9416503906</ele>
        <time>2010-08-29T10:49:44Z</time>
      </trkpt>
      <trkpt lat="45.72049" lon="6.04178">
        <ele>1326.5408935547</ele>
        <time>2010-08-29T10:50:14Z</time>
      </trkpt>
      <trkpt lat="45.72046" lon="6.04171">
        <ele>1327.6687011719</ele>
        <time>2010-08-29T10:50:44Z</time>
      </trkpt>
      <trkpt lat="45.72027" lon="6.04168">
        <ele>1330.0638427734</ele>
        <time>2010-08-29T10:51:14Z</time>
      </trkpt>
      <trkpt lat="45.72021" lon="6.04167">
        <ele>1331.1420898438</ele>
        <time>2010-08-29T10:51:52Z</time>
      </trkpt>
      <trkpt lat="45.72013" lon="6.04169">
        <ele>1332.2569580078</ele>
        <time>2010-08-29T10:52:22Z</time>
      </trkpt>
      <trkpt lat="45.72018" lon="6.04226">
        <ele>1325.1326904297</ele>
        <time>2010-08-29T10:52:52Z</time>
      </trkpt>
      <trkpt lat="45.72062" lon="6.04231">
        <ele>1319.4189453125</ele>
        <time>2010-08-29T10:53:22Z</time>
      </trkpt>
      <trkpt lat="45.72068" lon="6.04227">
        <ele>1318.8181152344</ele>
        <time>2010-08-29T10:53:52Z</time>
      </trkpt>
      <trkpt lat="45.72064" lon="6.0423">
        <ele>1319.1682128906</ele>
        <time>2010-08-29T10:54:47Z</time>
      </trkpt>
      <trkpt lat="45.7206" lon="6.04235">
        <ele>1319.3708496094</ele>
        <time>2010-08-29T10:55:17Z</time>
      </trkpt>
      <trkpt lat="45.72065" lon="6.04235">
        <ele>1318.7012939453</ele>
        <time>2010-08-29T10:56:30Z</time>
      </trkpt>
      <trkpt lat="45.72068" lon="6.04229">
        <ele>1318.6807861328</ele>
        <time>2010-08-29T10:57:10Z</time>
      </trkpt>
      <trkpt lat="45.72121" lon="6.04203">
        <ele>1317.4255371094</ele>
        <time>2010-08-29T10:57:40Z</time>
      </trkpt>
      <trkpt lat="45.72168" lon="6.0417">
        <ele>1319.5354003906</ele>
        <time>2010-08-29T10:58:10Z</time>
      </trkpt>
      <trkpt lat="45.72205" lon="6.04128">
        <ele>1322.19921875</ele>
        <time>2010-08-29T10:58:40Z</time>
      </trkpt>
      <trkpt lat="45.72253" lon="6.04122">
        <ele>1322.6439208984</ele>
        <time>2010-08-29T10:59:10Z</time>
      </trkpt>
      <trkpt lat="45.72266" lon="6.04127">
        <ele>1321.5316162109</ele>
        <time>2010-08-29T10:59:40Z</time>
      </trkpt>
      <trkpt lat="45.72272" lon="6.04131">
        <ele>1320.810546875</ele>
        <time>2010-08-29T11:00:10Z</time>
      </trkpt>
      <trkpt lat="45.723" lon="6.04161">
        <ele>1315.0759277344</ele>
        <time>2010-08-29T11:00:40Z</time>
      </trkpt>
      <trkpt lat="45.72301" lon="6.04167">
        <ele>1314.1759033203</ele>
        <time>2010-08-29T11:01:16Z</time>
      </trkpt>
      <trkpt lat="45.72311" lon="6.04169">
        <ele>1313.6423339844</ele>
        <time>2010-08-29T11:01:46Z</time>
      </trkpt>
      <trkpt lat="45.72307" lon="6.04171">
        <ele>1313.2818603516</ele>
        <time>2010-08-29T11:02:42Z</time>
      </trkpt>
      <trkpt lat="45.7231" lon="6.04176">
        <ele>1312.3806152344</ele>
        <time>2010-08-29T11:03:37Z</time>
      </trkpt>
      <trkpt lat="45.72402" lon="6.04196">
        <ele>1301.5970458984</ele>
        <time>2010-08-29T11:04:07Z</time>
      </trkpt>
      <trkpt lat="45.72474" lon="6.04254">
        <ele>1284.7102050781</ele>
        <time>2010-08-29T11:04:37Z</time>
      </trkpt>
      <trkpt lat="45.72486" lon="6.0428">
        <ele>1277.6939697266</ele>
        <time>2010-08-29T11:05:07Z</time>
      </trkpt>
      <trkpt lat="45.72482" lon="6.04277">
        <ele>1278.3487548828</ele>
        <time>2010-08-29T11:05:37Z</time>
      </trkpt>
      <trkpt lat="45.72537" lon="6.0428">
        <ele>1276.5673828125</ele>
        <time>2010-08-29T11:06:07Z</time>
      </trkpt>
      <trkpt lat="45.72563" lon="6.04342">
        <ele>1261.4085693359</ele>
        <time>2010-08-29T11:06:37Z</time>
      </trkpt>
      <trkpt lat="45.72575" lon="6.04361">
        <ele>1258.0526123047</ele>
        <time>2010-08-29T11:07:07Z</time>
      </trkpt>
      <trkpt lat="45.72583" lon="6.04369">
        <ele>1255.8245849609</ele>
        <time>2010-08-29T11:07:37Z</time>
      </trkpt>
      <trkpt lat="45.72581" lon="6.04376">
        <ele>1253.8032226562</ele>
        <time>2010-08-29T11:08:10Z</time>
      </trkpt>
      <trkpt lat="45.72617" lon="6.04476">
        <ele>1229.1391601562</ele>
        <time>2010-08-29T11:08:40Z</time>
      </trkpt>
      <trkpt lat="45.72575" lon="6.04545">
        <ele>1216.5302734375</ele>
        <time>2010-08-29T11:09:10Z</time>
      </trkpt>
      <trkpt lat="45.72557" lon="6.04591">
        <ele>1204.2685546875</ele>
        <time>2010-08-29T11:09:40Z</time>
      </trkpt>
      <trkpt lat="45.72545" lon="6.04643">
        <ele>1192.3461914062</ele>
        <time>2010-08-29T11:10:10Z</time>
      </trkpt>
      <trkpt lat="45.72544" lon="6.04653">
        <ele>1190.4134521484</ele>
        <time>2010-08-29T11:10:40Z</time>
      </trkpt>
      <trkpt lat="45.72541" lon="6.04659">
        <ele>1189.5895996094</ele>
        <time>2010-08-29T11:11:10Z</time>
      </trkpt>
      <trkpt lat="45.72536" lon="6.04656">
        <ele>1190.7923583984</ele>
        <time>2010-08-29T11:11:49Z</time>
      </trkpt>
      <trkpt lat="45.7254" lon="6.04661">
        <ele>1189.4455566406</ele>
        <time>2010-08-29T11:12:40Z</time>
      </trkpt>
      <trkpt lat="45.72534" lon="6.04657">
        <ele>1190.8387451172</ele>
        <time>2010-08-29T11:13:10Z</time>
      </trkpt>
      <trkpt lat="45.72514" lon="6.04769">
        <ele>1167.1556396484</ele>
        <time>2010-08-29T11:13:40Z</time>
      </trkpt>
      <trkpt lat="45.72549" lon="6.04884">
        <ele>1140.2243652344</ele>
        <time>2010-08-29T11:14:10Z</time>
      </trkpt>
      <trkpt lat="45.72545" lon="6.0488">
        <ele>1141.7706298828</ele>
        <time>2010-08-29T11:14:45Z</time>
      </trkpt>
      <trkpt lat="45.72551" lon="6.04875">
        <ele>1141.9852294922</ele>
        <time>2010-08-29T11:15:21Z</time>
      </trkpt>
      <trkpt lat="45.72663" lon="6.04901">
        <ele>1116.1174316406</ele>
        <time>2010-08-29T11:15:51Z</time>
      </trkpt>
      <trkpt lat="45.72746" lon="6.05057">
        <ele>1087.8266601562</ele>
        <time>2010-08-29T11:16:21Z</time>
      </trkpt>
      <trkpt lat="45.72771" lon="6.05058">
        <ele>1086.9508056641</ele>
        <time>2010-08-29T11:16:51Z</time>
      </trkpt>
      <trkpt lat="45.72775" lon="6.05055">
        <ele>1087.1064453125</ele>
        <time>2010-08-29T11:17:48Z</time>
      </trkpt>
      <trkpt lat="45.72779" lon="6.0506">
        <ele>1086.2999267578</ele>
        <time>2010-08-29T11:18:26Z</time>
      </trkpt>
      <trkpt lat="45.72822" lon="6.05272">
        <ele>1063.4256591797</ele>
        <time>2010-08-29T11:18:56Z</time>
      </trkpt>
      <trkpt lat="45.72843" lon="6.05354">
        <ele>1056.9147949219</ele>
        <time>2010-08-29T11:19:26Z</time>
      </trkpt>
      <trkpt lat="45.72848" lon="6.05351">
        <ele>1056.8272705078</ele>
        <time>2010-08-29T11:19:59Z</time>
      </trkpt>
      <trkpt lat="45.72901" lon="6.05257">
        <ele>1062.6491699219</ele>
        <time>2010-08-29T11:20:29Z</time>
      </trkpt>
      <trkpt lat="45.72959" lon="6.052">
        <ele>1065.2901611328</ele>
        <time>2010-08-29T11:20:59Z</time>
      </trkpt>
      <trkpt lat="45.72994" lon="6.05145">
        <ele>1071.3063964844</ele>
        <time>2010-08-29T11:21:29Z</time>
      </trkpt>
      <trkpt lat="45.73021" lon="6.0511">
        <ele>1075.8897705078</ele>
        <time>2010-08-29T11:21:59Z</time>
      </trkpt>
      <trkpt lat="45.73046" lon="6.05062">
        <ele>1082.0021972656</ele>
        <time>2010-08-29T11:22:29Z</time>
      </trkpt>
      <trkpt lat="45.73046" lon="6.05025">
        <ele>1086.3991699219</ele>
        <time>2010-08-29T11:22:59Z</time>
      </trkpt>
      <trkpt lat="45.73041" lon="6.05017">
        <ele>1087.6214599609</ele>
        <time>2010-08-29T11:23:29Z</time>
      </trkpt>
      <trkpt lat="45.73046" lon="6.05003">
        <ele>1089.5921630859</ele>
        <time>2010-08-29T11:23:59Z</time>
      </trkpt>
      <trkpt lat="45.7305" lon="6.0495">
        <ele>1096.9401855469</ele>
        <time>2010-08-29T11:24:29Z</time>
      </trkpt>
      <trkpt lat="45.73066" lon="6.04939">
        <ele>1099.7038574219</ele>
        <time>2010-08-29T11:24:59Z</time>
      </trkpt>
      <trkpt lat="45.73069" lon="6.04944">
        <ele>1098.6057128906</ele>
        <time>2010-08-29T11:25:45Z</time>
      </trkpt>
      <trkpt lat="45.73132" lon="6.04956">
        <ele>1100.1712646484</ele>
        <time>2010-08-29T11:26:15Z</time>
      </trkpt>
      <trkpt lat="45.73223" lon="6.05052">
        <ele>1089.4392089844</ele>
        <time>2010-08-29T11:26:45Z</time>
      </trkpt>
      <trkpt lat="45.7333" lon="6.05123">
        <ele>1085.2322998047</ele>
        <time>2010-08-29T11:27:15Z</time>
      </trkpt>
      <trkpt lat="45.73382" lon="6.05158">
        <ele>1083.7045898438</ele>
        <time>2010-08-29T11:27:45Z</time>
      </trkpt>
      <trkpt lat="45.73465" lon="6.05198">
        <ele>1085.8341064453</ele>
        <time>2010-08-29T11:28:15Z</time>
      </trkpt>
      <trkpt lat="45.73522" lon="6.05225">
        <ele>1086.3099365234</ele>
        <time>2010-08-29T11:28:45Z</time>
      </trkpt>
      <trkpt lat="45.73551" lon="6.0526">
        <ele>1081.3405761719</ele>
        <time>2010-08-29T11:29:15Z</time>
      </trkpt>
      <trkpt lat="45.73562" lon="6.05274">
        <ele>1077.7658691406</ele>
        <time>2010-08-29T11:29:45Z</time>
      </trkpt>
      <trkpt lat="45.73607" lon="6.05277">
        <ele>1083.6131591797</ele>
        <time>2010-08-29T11:30:15Z</time>
      </trkpt>
      <trkpt lat="45.73632" lon="6.05275">
        <ele>1087.0959472656</ele>
        <time>2010-08-29T11:30:45Z</time>
      </trkpt>
      <trkpt lat="45.73674" lon="6.05279">
        <ele>1088.9295654297</ele>
        <time>2010-08-29T11:31:15Z</time>
      </trkpt>
      <trkpt lat="45.7369" lon="6.0528">
        <ele>1092.9124755859</ele>
        <time>2010-08-29T11:31:45Z</time>
      </trkpt>
      <trkpt lat="45.73732" lon="6.05299">
        <ele>1091.392578125</ele>
        <time>2010-08-29T11:32:15Z</time>
      </trkpt>
      <trkpt lat="45.73777" lon="6.05309">
        <ele>1092.6942138672</ele>
        <time>2010-08-29T11:32:45Z</time>
      </trkpt>
      <trkpt lat="45.73829" lon="6.05317">
        <ele>1094.4692382812</ele>
        <time>2010-08-29T11:33:15Z</time>
      </trkpt>
      <trkpt lat="45.73879" lon="6.05346">
        <ele>1091.2194824219</ele>
        <time>2010-08-29T11:33:45Z</time>
      </trkpt>
      <trkpt lat="45.73907" lon="6.05353">
        <ele>1091.1744384766</ele>
        <time>2010-08-29T11:34:15Z</time>
      </trkpt>
      <trkpt lat="45.73936" lon="6.05356">
        <ele>1092.9451904297</ele>
        <time>2010-08-29T11:34:45Z</time>
      </trkpt>
      <trkpt lat="45.73994" lon="6.05343">
        <ele>1101.0500488281</ele>
        <time>2010-08-29T11:35:15Z</time>
      </trkpt>
      <trkpt lat="45.74051" lon="6.05363">
        <ele>1099.5148925781</ele>
        <time>2010-08-29T11:35:45Z</time>
      </trkpt>
      <trkpt lat="45.74104" lon="6.05419">
        <ele>1088.8315429688</ele>
        <time>2010-08-29T11:36:15Z</time>
      </trkpt>
      <trkpt lat="45.74099" lon="6.05482">
        <ele>1072.1561279297</ele>
        <time>2010-08-29T11:36:45Z</time>
      </trkpt>
      <trkpt lat="45.74125" lon="6.05507">
        <ele>1064.7979736328</ele>
        <time>2010-08-29T11:37:15Z</time>
      </trkpt>
      <trkpt lat="45.74182" lon="6.05537">
        <ele>1063.1279296875</ele>
        <time>2010-08-29T11:37:45Z</time>
      </trkpt>
      <trkpt lat="45.74226" lon="6.05554">
        <ele>1063.3670654297</ele>
        <time>2010-08-29T11:38:15Z</time>
      </trkpt>
      <trkpt lat="45.74273" lon="6.05563">
        <ele>1064.0771484375</ele>
        <time>2010-08-29T11:38:45Z</time>
      </trkpt>
      <trkpt lat="45.74337" lon="6.05589">
        <ele>1059.0128173828</ele>
        <time>2010-08-29T11:39:15Z</time>
      </trkpt>
      <trkpt lat="45.74406" lon="6.05616">
        <ele>1057.7911376953</ele>
        <time>2010-08-29T11:39:45Z</time>
      </trkpt>
      <trkpt lat="45.7449" lon="6.05656">
        <ele>1052.8997802734</ele>
        <time>2010-08-29T11:40:15Z</time>
      </trkpt>
      <trkpt lat="45.7458" lon="6.05673">
        <ele>1058.1999511719</ele>
        <time>2010-08-29T11:40:45Z</time>
      </trkpt>
      <trkpt lat="45.74648" lon="6.05666">
        <ele>1067.8116455078</ele>
        <time>2010-08-29T11:41:15Z</time>
      </trkpt>
      <trkpt lat="45.74707" lon="6.05676">
        <ele>1075.7348632812</ele>
        <time>2010-08-29T11:41:45Z</time>
      </trkpt>
      <trkpt lat="45.74729" lon="6.05678">
        <ele>1076.9910888672</ele>
        <time>2010-08-29T11:42:15Z</time>
      </trkpt>
      <trkpt lat="45.74749" lon="6.0569">
        <ele>1076.4279785156</ele>
        <time>2010-08-29T11:42:45Z</time>
      </trkpt>
      <trkpt lat="45.74757" lon="6.05687">
        <ele>1077.6058349609</ele>
        <time>2010-08-29T11:43:15Z</time>
      </trkpt>
      <trkpt lat="45.74773" lon="6.05677">
        <ele>1080.9090576172</ele>
        <time>2010-08-29T11:43:45Z</time>
      </trkpt>
      <trkpt lat="45.74777" lon="6.05679">
        <ele>1081.0581054688</ele>
        <time>2010-08-29T11:44:15Z</time>
      </trkpt>
      <trkpt lat="45.74786" lon="6.05677">
        <ele>1082.6920166016</ele>
        <time>2010-08-29T11:44:45Z</time>
      </trkpt>
      <trkpt lat="45.7479" lon="6.05671">
        <ele>1084.2369384766</ele>
        <time>2010-08-29T11:45:16Z</time>
      </trkpt>
      <trkpt lat="45.74783" lon="6.05666">
        <ele>1084.1340332031</ele>
        <time>2010-08-29T11:45:46Z</time>
      </trkpt>
      <trkpt lat="45.74781" lon="6.05671">
        <ele>1082.7799072266</ele>
        <time>2010-08-29T11:46:33Z</time>
      </trkpt>
      <trkpt lat="45.74791" lon="6.0567">
        <ele>1084.6997070312</ele>
        <time>2010-08-29T11:47:03Z</time>
      </trkpt>
      <trkpt lat="45.74787" lon="6.05674">
        <ele>1083.3135986328</ele>
        <time>2010-08-29T11:47:44Z</time>
      </trkpt>
      <trkpt lat="45.74781" lon="6.05674">
        <ele>1082.3555908203</ele>
        <time>2010-08-29T11:48:14Z</time>
      </trkpt>
      <trkpt lat="45.74774" lon="6.05685">
        <ele>1079.9007568359</ele>
        <time>2010-08-29T11:48:44Z</time>
      </trkpt>
      <trkpt lat="45.7478" lon="6.05669">
        <ele>1082.9638671875</ele>
        <time>2010-08-29T11:49:14Z</time>
      </trkpt>
      <trkpt lat="45.74784" lon="6.05671">
        <ele>1083.4343261719</ele>
        <time>2010-08-29T11:49:44Z</time>
      </trkpt>
      <trkpt lat="45.74781" lon="6.05664">
        <ele>1084.0808105469</ele>
        <time>2010-08-29T11:50:14Z</time>
      </trkpt>
      <trkpt lat="45.74786" lon="6.05663">
        <ele>1085.1624755859</ele>
        <time>2010-08-29T11:50:59Z</time>
      </trkpt>
      <trkpt lat="45.74806" lon="6.05671">
        <ele>1086.7801513672</ele>
        <time>2010-08-29T11:51:29Z</time>
      </trkpt>
      <trkpt lat="45.74825" lon="6.05697">
        <ele>1081.8461914062</ele>
        <time>2010-08-29T11:51:59Z</time>
      </trkpt>
      <trkpt lat="45.74829" lon="6.05709">
        <ele>1081.1514892578</ele>
        <time>2010-08-29T11:52:29Z</time>
      </trkpt>
      <trkpt lat="45.74761" lon="6.05826">
        <ele>1064.9401855469</ele>
        <time>2010-08-29T11:52:59Z</time>
      </trkpt>
      <trkpt lat="45.7461" lon="6.05827">
        <ele>1046.5533447266</ele>
        <time>2010-08-29T11:53:29Z</time>
      </trkpt>
      <trkpt lat="45.74427" lon="6.05788">
        <ele>1028.0729980469</ele>
        <time>2010-08-29T11:53:59Z</time>
      </trkpt>
      <trkpt lat="45.74399" lon="6.05791">
        <ele>1024.4471435547</ele>
        <time>2010-08-29T11:54:29Z</time>
      </trkpt>
      <trkpt lat="45.74294" lon="6.05819">
        <ele>1018.7047119141</ele>
        <time>2010-08-29T11:54:59Z</time>
      </trkpt>
      <trkpt lat="45.74186" lon="6.05861">
        <ele>1002.0841674805</ele>
        <time>2010-08-29T11:55:29Z</time>
      </trkpt>
      <trkpt lat="45.7407" lon="6.05919">
        <ele>998.49078369141</ele>
        <time>2010-08-29T11:55:59Z</time>
      </trkpt>
      <trkpt lat="45.74013" lon="6.05954">
        <ele>991.55578613281</ele>
        <time>2010-08-29T11:56:29Z</time>
      </trkpt>
      <trkpt lat="45.73874" lon="6.06029">
        <ele>989.50219726562</ele>
        <time>2010-08-29T11:56:59Z</time>
      </trkpt>
      <trkpt lat="45.73809" lon="6.0602">
        <ele>989</ele>
        <time>2010-08-29T11:57:29Z</time>
      </trkpt>
      <trkpt lat="45.73766" lon="6.0598">
        <ele>989.84588623047</ele>
        <time>2010-08-29T11:57:59Z</time>
      </trkpt>
      <trkpt lat="45.73767" lon="6.05986">
        <ele>989.6943359375</ele>
        <time>2010-08-29T11:59:41Z</time>
      </trkpt>
      <trkpt lat="45.73766" lon="6.05987">
        <ele>989.69805908203</ele>
        <time>2010-08-29T12:00:38Z</time>
      </trkpt>
      <trkpt lat="45.73763" lon="6.05984">
        <ele>989.80096435547</ele>
        <time>2010-08-29T12:02:08Z</time>
      </trkpt>
      <trkpt lat="45.73759" lon="6.05981">
        <ele>989.90087890625</ele>
        <time>2010-08-29T12:05:29Z</time>
      </trkpt>
      <trkpt lat="45.7376" lon="6.05987">
        <ele>989.80755615234</ele>
        <time>2010-08-29T12:06:52Z</time>
      </trkpt>
      <trkpt lat="45.73756" lon="6.05983">
        <ele>989.92102050781</ele>
        <time>2010-08-29T12:14:45Z</time>
      </trkpt>
      <trkpt lat="45.73688" lon="6.0597">
        <ele>990</ele>
        <time>2010-08-29T12:15:15Z</time>
      </trkpt>
      <trkpt lat="45.73621" lon="6.0596">
        <ele>990</ele>
        <time>2010-08-29T12:15:45Z</time>
      </trkpt>
      <trkpt lat="45.7356" lon="6.05959">
        <ele>990</ele>
        <time>2010-08-29T12:16:15Z</time>
      </trkpt>
      <trkpt lat="45.73531" lon="6.05968">
        <ele>990</ele>
        <time>2010-08-29T12:16:45Z</time>
      </trkpt>
      <trkpt lat="45.73517" lon="6.05972">
        <ele>990</ele>
        <time>2010-08-29T12:17:15Z</time>
      </trkpt>
      <trkpt lat="45.73512" lon="6.05975">
        <ele>990</ele>
        <time>2010-08-29T12:17:51Z</time>
      </trkpt>
      <trkpt lat="45.73432" lon="6.05992">
        <ele>990</ele>
        <time>2010-08-29T12:18:21Z</time>
      </trkpt>
      <trkpt lat="45.73348" lon="6.06007">
        <ele>994.26928710938</ele>
        <time>2010-08-29T12:18:51Z</time>
      </trkpt>
      <trkpt lat="45.7332" lon="6.06012">
        <ele>994.7060546875</ele>
        <time>2010-08-29T12:19:21Z</time>
      </trkpt>
      <trkpt lat="45.73246" lon="6.0599">
        <ele>997.14392089844</ele>
        <time>2010-08-29T12:19:51Z</time>
      </trkpt>
      <trkpt lat="45.73157" lon="6.0595">
        <ele>998.49749755859</ele>
        <time>2010-08-29T12:20:21Z</time>
      </trkpt>
      <trkpt lat="45.73104" lon="6.05901">
        <ele>999</ele>
        <time>2010-08-29T12:20:51Z</time>
      </trkpt>
      <trkpt lat="45.73062" lon="6.05922">
        <ele>1002.8845825195</ele>
        <time>2010-08-29T12:21:21Z</time>
      </trkpt>
      <trkpt lat="45.73037" lon="6.05927">
        <ele>1011.3651123047</ele>
        <time>2010-08-29T12:21:51Z</time>
      </trkpt>
      <trkpt lat="45.73032" lon="6.05937">
        <ele>1013.1778564453</ele>
        <time>2010-08-29T12:22:21Z</time>
      </trkpt>
      <trkpt lat="45.73038" lon="6.05952">
        <ele>1010.8634033203</ele>
        <time>2010-08-29T12:22:51Z</time>
      </trkpt>
      <trkpt lat="45.73023" lon="6.06013">
        <ele>1015.578125</ele>
        <time>2010-08-29T12:23:21Z</time>
      </trkpt>
      <trkpt lat="45.72977" lon="6.0606">
        <ele>1017.8458251953</ele>
        <time>2010-08-29T12:23:51Z</time>
      </trkpt>
      <trkpt lat="45.7292" lon="6.06129">
        <ele>1010.4074707031</ele>
        <time>2010-08-29T12:24:21Z</time>
      </trkpt>
      <trkpt lat="45.72793" lon="6.06161">
        <ele>1000</ele>
        <time>2010-08-29T12:24:51Z</time>
      </trkpt>
      <trkpt lat="45.7276" lon="6.06218">
        <ele>1000</ele>
        <time>2010-08-29T12:25:21Z</time>
      </trkpt>
      <trkpt lat="45.72681" lon="6.06192">
        <ele>1000</ele>
        <time>2010-08-29T12:25:51Z</time>
      </trkpt>
      <trkpt lat="45.72614" lon="6.0622">
        <ele>1000</ele>
        <time>2010-08-29T12:26:21Z</time>
      </trkpt>
      <trkpt lat="45.72545" lon="6.06221">
        <ele>1000</ele>
        <time>2010-08-29T12:26:51Z</time>
      </trkpt>
      <trkpt lat="45.72454" lon="6.06237">
        <ele>996.82891845703</ele>
        <time>2010-08-29T12:27:21Z</time>
      </trkpt>
      <trkpt lat="45.72398" lon="6.06246">
        <ele>994.20959472656</ele>
        <time>2010-08-29T12:27:51Z</time>
      </trkpt>
      <trkpt lat="45.72334" lon="6.06308">
        <ele>988.84246826172</ele>
        <time>2010-08-29T12:28:21Z</time>
      </trkpt>
      <trkpt lat="45.72196" lon="6.06404">
        <ele>964.17163085938</ele>
        <time>2010-08-29T12:28:51Z</time>
      </trkpt>
      <trkpt lat="45.72092" lon="6.06362">
        <ele>959.68957519531</ele>
        <time>2010-08-29T12:29:21Z</time>
      </trkpt>
      <trkpt lat="45.72104" lon="6.0641">
        <ele>949.20379638672</ele>
        <time>2010-08-29T12:29:51Z</time>
      </trkpt>
      <trkpt lat="45.72106" lon="6.06433">
        <ele>943.15576171875</ele>
        <time>2010-08-29T12:30:21Z</time>
      </trkpt>
      <trkpt lat="45.71945" lon="6.06296">
        <ele>951.40576171875</ele>
        <time>2010-08-29T12:30:51Z</time>
      </trkpt>
      <trkpt lat="45.71735" lon="6.06382">
        <ele>919.99005126953</ele>
        <time>2010-08-29T12:31:21Z</time>
      </trkpt>
      <trkpt lat="45.71534" lon="6.06561">
        <ele>891.5712890625</ele>
        <time>2010-08-29T12:31:51Z</time>
      </trkpt>
      <trkpt lat="45.71392" lon="6.06617">
        <ele>886.33148193359</ele>
        <time>2010-08-29T12:32:21Z</time>
      </trkpt>
      <trkpt lat="45.71393" lon="6.06609">
        <ele>887.65496826172</ele>
        <time>2010-08-29T12:32:51Z</time>
      </trkpt>
      <trkpt lat="45.71391" lon="6.06616">
        <ele>886.55902099609</ele>
        <time>2010-08-29T12:33:26Z</time>
      </trkpt>
      <trkpt lat="45.71256" lon="6.0681">
        <ele>870.6572265625</ele>
        <time>2010-08-29T12:33:56Z</time>
      </trkpt>
      <trkpt lat="45.71382" lon="6.07055">
        <ele>835.51232910156</ele>
        <time>2010-08-29T12:34:26Z</time>
      </trkpt>
      <trkpt lat="45.71338" lon="6.07139">
        <ele>828.86456298828</ele>
        <time>2010-08-29T12:34:56Z</time>
      </trkpt>
      <trkpt lat="45.71258" lon="6.07103">
        <ele>837.31311035156</ele>
        <time>2010-08-29T12:35:26Z</time>
      </trkpt>
      <trkpt lat="45.71228" lon="6.07085">
        <ele>841.24700927734</ele>
        <time>2010-08-29T12:35:56Z</time>
      </trkpt>
      <trkpt lat="45.71195" lon="6.07172">
        <ele>833.18115234375</ele>
        <time>2010-08-29T12:36:26Z</time>
      </trkpt>
      <trkpt lat="45.71168" lon="6.07292">
        <ele>818.40588378906</ele>
        <time>2010-08-29T12:36:56Z</time>
      </trkpt>
      <trkpt lat="45.71174" lon="6.0751">
        <ele>790.92059326172</ele>
        <time>2010-08-29T12:37:26Z</time>
      </trkpt>
      <trkpt lat="45.71192" lon="6.07627">
        <ele>780.24682617188</ele>
        <time>2010-08-29T12:37:56Z</time>
      </trkpt>
      <trkpt lat="45.7119" lon="6.07655">
        <ele>777.81591796875</ele>
        <time>2010-08-29T12:38:26Z</time>
      </trkpt>
      <trkpt lat="45.71196" lon="6.07908">
        <ele>754.32891845703</ele>
        <time>2010-08-29T12:38:56Z</time>
      </trkpt>
      <trkpt lat="45.71204" lon="6.07966">
        <ele>750.32104492188</ele>
        <time>2010-08-29T12:39:26Z</time>
      </trkpt>
      <trkpt lat="45.71178" lon="6.08059">
        <ele>741.458984375</ele>
        <time>2010-08-29T12:39:56Z</time>
      </trkpt>
      <trkpt lat="45.71294" lon="6.08339">
        <ele>728.72442626953</ele>
        <time>2010-08-29T12:40:26Z</time>
      </trkpt>
      <trkpt lat="45.71352" lon="6.08534">
        <ele>718.35089111328</ele>
        <time>2010-08-29T12:40:56Z</time>
      </trkpt>
      <trkpt lat="45.71349" lon="6.08539">
        <ele>717.95428466797</ele>
        <time>2010-08-29T12:41:35Z</time>
      </trkpt>
      <trkpt lat="45.71355" lon="6.08574">
        <ele>716.76330566406</ele>
        <time>2010-08-29T12:42:05Z</time>
      </trkpt>
      <trkpt lat="45.71375" lon="6.08657">
        <ele>715.68334960938</ele>
        <time>2010-08-29T12:42:35Z</time>
      </trkpt>
      <trkpt lat="45.71492" lon="6.08759">
        <ele>707.93731689453</ele>
        <time>2010-08-29T12:43:05Z</time>
      </trkpt>
      <trkpt lat="45.71632" lon="6.08839">
        <ele>704.55548095703</ele>
        <time>2010-08-29T12:43:35Z</time>
      </trkpt>
      <trkpt lat="45.71654" lon="6.0911">
        <ele>694.85150146484</ele>
        <time>2010-08-29T12:44:05Z</time>
      </trkpt>
      <trkpt lat="45.71716" lon="6.09313">
        <ele>682.18481445312</ele>
        <time>2010-08-29T12:44:35Z</time>
      </trkpt>
      <trkpt lat="45.71784" lon="6.09458">
        <ele>680</ele>
        <time>2010-08-29T12:45:05Z</time>
      </trkpt>
      <trkpt lat="45.71799" lon="6.09646">
        <ele>668.91735839844</ele>
        <time>2010-08-29T12:45:35Z</time>
      </trkpt>
      <trkpt lat="45.71855" lon="6.09789">
        <ele>656.56072998047</ele>
        <time>2010-08-29T12:46:05Z</time>
      </trkpt>
      <trkpt lat="45.71967" lon="6.09929">
        <ele>636.58569335938</ele>
        <time>2010-08-29T12:46:35Z</time>
      </trkpt>
      <trkpt lat="45.72039" lon="6.09979">
        <ele>616.02532958984</ele>
        <time>2010-08-29T12:47:05Z</time>
      </trkpt>
      <trkpt lat="45.72043" lon="6.1">
        <ele>613.89538574219</ele>
        <time>2010-08-29T12:47:35Z</time>
      </trkpt>
      <trkpt lat="45.72046" lon="6.10008">
        <ele>612.59948730469</ele>
        <time>2010-08-29T12:48:05Z</time>
      </trkpt>
      <trkpt lat="45.7205" lon="6.10011">
        <ele>610.81329345703</ele>
        <time>2010-08-29T12:48:35Z</time>
      </trkpt>
      <trkpt lat="45.72044" lon="6.10002">
        <ele>613.31097412109</ele>
        <time>2010-08-29T12:49:05Z</time>
      </trkpt>
      <trkpt lat="45.72049" lon="6.10007">
        <ele>611.17718505859</ele>
        <time>2010-08-29T12:49:35Z</time>
      </trkpt>
      <trkpt lat="45.72045" lon="6.10006">
        <ele>612.82940673828</ele>
        <time>2010-08-29T12:50:31Z</time>
      </trkpt>
      <trkpt lat="45.72051" lon="6.10007">
        <ele>610.57183837891</ele>
        <time>2010-08-29T12:51:05Z</time>
      </trkpt>
      <trkpt lat="45.72058" lon="6.10002">
        <ele>607.99047851562</ele>
        <time>2010-08-29T12:51:35Z</time>
      </trkpt>
      <trkpt lat="45.72048" lon="6.10004">
        <ele>611.75756835938</ele>
        <time>2010-08-29T12:52:05Z</time>
      </trkpt>
      <trkpt lat="45.72052" lon="6.10006">
        <ele>610.00787353516</ele>
        <time>2010-08-29T12:52:44Z</time>
      </trkpt>
      <trkpt lat="45.72047" lon="6.10005">
        <ele>612.29138183594</ele>
        <time>2010-08-29T12:53:14Z</time>
      </trkpt>
      <trkpt lat="45.72035" lon="6.10011">
        <ele>616.49230957031</ele>
        <time>2010-08-29T12:53:44Z</time>
      </trkpt>
      <trkpt lat="45.72025" lon="6.10015">
        <ele>619.18688964844</ele>
        <time>2010-08-29T12:54:14Z</time>
      </trkpt>
      <trkpt lat="45.72031" lon="6.10011">
        <ele>617.93719482422</ele>
        <time>2010-08-29T12:54:44Z</time>
      </trkpt>
      <trkpt lat="45.72036" lon="6.10012">
        <ele>616.13061523438</ele>
        <time>2010-08-29T12:55:22Z</time>
      </trkpt>
      <trkpt lat="45.72081" lon="6.10079">
        <ele>596.24768066406</ele>
        <time>2010-08-29T12:55:52Z</time>
      </trkpt>
      <trkpt lat="45.72107" lon="6.10146">
        <ele>587.90844726562</ele>
        <time>2010-08-29T12:56:22Z</time>
      </trkpt>
      <trkpt lat="45.72126" lon="6.10062">
        <ele>590.99780273438</ele>
        <time>2010-08-29T12:56:52Z</time>
      </trkpt>
      <trkpt lat="45.72119" lon="6.09911">
        <ele>591.37194824219</ele>
        <time>2010-08-29T12:57:22Z</time>
      </trkpt>
      <trkpt lat="45.72188" lon="6.09807">
        <ele>584.69036865234</ele>
        <time>2010-08-29T12:57:52Z</time>
      </trkpt>
      <trkpt lat="45.72263" lon="6.09618">
        <ele>582.0947265625</ele>
        <time>2010-08-29T12:58:22Z</time>
      </trkpt>
      <trkpt lat="45.72354" lon="6.09442">
        <ele>579.30847167969</ele>
        <time>2010-08-29T12:58:52Z</time>
      </trkpt>
      <trkpt lat="45.72446" lon="6.09404">
        <ele>577.40307617188</ele>
        <time>2010-08-29T12:59:22Z</time>
      </trkpt>
      <trkpt lat="45.72477" lon="6.09502">
        <ele>578</ele>
        <time>2010-08-29T12:59:52Z</time>
      </trkpt>
      <trkpt lat="45.72436" lon="6.09562">
        <ele>579</ele>
        <time>2010-08-29T13:00:22Z</time>
      </trkpt>
      <trkpt lat="45.72386" lon="6.0962">
        <ele>587.02801513672</ele>
        <time>2010-08-29T13:00:52Z</time>
      </trkpt>
      <trkpt lat="45.72339" lon="6.09712">
        <ele>592.37579345703</ele>
        <time>2010-08-29T13:01:22Z</time>
      </trkpt>
      <trkpt lat="45.7229" lon="6.09804">
        <ele>591.81298828125</ele>
        <time>2010-08-29T13:01:52Z</time>
      </trkpt>
      <trkpt lat="45.72224" lon="6.09883">
        <ele>581.34484863281</ele>
        <time>2010-08-29T13:02:22Z</time>
      </trkpt>
      <trkpt lat="45.72197" lon="6.10003">
        <ele>581.26245117188</ele>
        <time>2010-08-29T13:02:52Z</time>
      </trkpt>
      <trkpt lat="45.72239" lon="6.10121">
        <ele>585.64880371094</ele>
        <time>2010-08-29T13:03:22Z</time>
      </trkpt>
      <trkpt lat="45.72223" lon="6.10233">
        <ele>588.95147705078</ele>
        <time>2010-08-29T13:03:52Z</time>
      </trkpt>
      <trkpt lat="45.72181" lon="6.1033">
        <ele>592.16180419922</ele>
        <time>2010-08-29T13:04:22Z</time>
      </trkpt>
      <trkpt lat="45.72178" lon="6.10374">
        <ele>595.36004638672</ele>
        <time>2010-08-29T13:04:52Z</time>
      </trkpt>
      <trkpt lat="45.72182" lon="6.10371">
        <ele>595.60461425781</ele>
        <time>2010-08-29T13:06:08Z</time>
      </trkpt>
      <trkpt lat="45.72178" lon="6.10378">
        <ele>595.6220703125</ele>
        <time>2010-08-29T13:06:38Z</time>
      </trkpt>
      <trkpt lat="45.72182" lon="6.10377">
        <ele>596.08056640625</ele>
        <time>2010-08-29T13:08:43Z</time>
      </trkpt>
      <trkpt lat="45.72177" lon="6.10378">
        <ele>595.58880615234</ele>
        <time>2010-08-29T13:09:13Z</time>
      </trkpt>
      <trkpt lat="45.7218" lon="6.10373">
        <ele>595.56762695312</ele>
        <time>2010-08-29T13:11:06Z</time>
      </trkpt>
      <trkpt lat="45.72187" lon="6.1037">
        <ele>596.01257324219</ele>
        <time>2010-08-29T13:11:36Z</time>
      </trkpt>
      <trkpt lat="45.72176" lon="6.10378">
        <ele>595.41186523438</ele>
        <time>2010-08-29T13:12:06Z</time>
      </trkpt>
      <trkpt lat="45.72176" lon="6.10371">
        <ele>594.83239746094</ele>
        <time>2010-08-29T13:12:44Z</time>
      </trkpt>
      <trkpt lat="45.72226" lon="6.10269">
        <ele>593.26104736328</ele>
        <time>2010-08-29T13:13:14Z</time>
      </trkpt>
      <trkpt lat="45.72273" lon="6.10147">
        <ele>597.03680419922</ele>
        <time>2010-08-29T13:13:44Z</time>
      </trkpt>
      <trkpt lat="45.72237" lon="6.09892">
        <ele>583.80725097656</ele>
        <time>2010-08-29T13:14:14Z</time>
      </trkpt>
      <trkpt lat="45.72406" lon="6.09616">
        <ele>585.17095947266</ele>
        <time>2010-08-29T13:14:44Z</time>
      </trkpt>
      <trkpt lat="45.72464" lon="6.09446">
        <ele>577.02166748047</ele>
        <time>2010-08-29T13:15:14Z</time>
      </trkpt>
      <trkpt lat="45.72443" lon="6.09448">
        <ele>577.13330078125</ele>
        <time>2010-08-29T13:15:44Z</time>
      </trkpt>
      <trkpt lat="45.72435" lon="6.09439">
        <ele>577.15106201172</ele>
        <time>2010-08-29T13:16:14Z</time>
      </trkpt>
      <trkpt lat="45.7243" lon="6.09446">
        <ele>577.06115722656</ele>
        <time>2010-08-29T13:16:44Z</time>
      </trkpt>
      <trkpt lat="45.72426" lon="6.09446">
        <ele>577.06115722656</ele>
        <time>2010-08-29T13:17:14Z</time>
      </trkpt>
      <trkpt lat="45.72434" lon="6.09448">
        <ele>577.14013671875</ele>
        <time>2010-08-29T13:17:44Z</time>
      </trkpt>
      <trkpt lat="45.72442" lon="6.09445">
        <ele>577.02001953125</ele>
        <time>2010-08-29T13:18:14Z</time>
      </trkpt>
      <trkpt lat="45.72437" lon="6.0945">
        <ele>577.20538330078</ele>
        <time>2010-08-29T13:18:44Z</time>
      </trkpt>
      <trkpt lat="45.72435" lon="6.09457">
        <ele>577.44055175781</ele>
        <time>2010-08-29T13:19:16Z</time>
      </trkpt>
      <trkpt lat="45.7244" lon="6.09456">
        <ele>577.40966796875</ele>
        <time>2010-08-29T13:20:21Z</time>
      </trkpt>
    </trkseg>
  </trk>
</gpx>